Time;durP1;ratioP1;P1;durP2;ratioP2;P2;SDS_P1;SDS_P2;PMS_P1;PMS_P2;Temp;Humidity;BMP_temperature;BMP_pressure;BME280_temperature;BME280_humidity;BME280_pressure;Samples;Min_cycle;Max_cycle;Signal;HPM_P1;HPM_P2
2023/04/26 00:02:14;;;;;;;2.95;0.95;;;14.60;1.00;;;;;;5035302;28;20029;-52
2023/04/26 00:04:40;;;;;;;3.22;1.10;;;14.60;1.00;;;;;;5035744;28;20116;-51
2023/04/26 00:07:06;;;;;;;1.40;1.25;;;14.50;1.00;;;;;;5028685;28;20399;-53
2023/04/26 00:09:32;;;;;;;3.75;1.23;;;14.50;1.00;;;;;;5035103;28;20021;-56
2023/04/26 00:11:57;;;;;;;2.17;1.55;;;14.50;1.00;;;;;;5035213;28;20037;-51
2023/04/26 00:14:23;;;;;;;1.23;1.00;;;14.50;1.00;;;;;;5034802;28;20018;-55
2023/04/26 00:16:49;;;;;;;2.08;1.50;;;14.50;1.00;;;;;;5033214;28;20124;-50
2023/04/26 00:19:15;;;;;;;1.83;1.10;;;14.50;1.00;;;;;;5043797;28;20438;-51
2023/04/26 00:21:41;;;;;;;5.60;0.95;;;14.40;1.00;;;;;;5035501;28;20026;-52
2023/04/26 00:24:07;;;;;;;1.25;0.98;;;14.40;1.00;;;;;;5047670;28;20029;-53
2023/04/26 00:26:33;;;;;;;1.92;1.05;;;14.40;1.00;;;;;;5034913;28;20033;-51
2023/04/26 00:29:00;;;;;;;1.83;1.23;;;14.40;1.00;;;;;;5034987;28;20037;-52
2023/04/26 00:31:25;;;;;;;1.80;1.20;;;14.30;1.00;;;;;;5033862;28;20038;-51
2023/04/26 00:33:51;;;;;;;1.63;1.20;;;14.30;1.00;;;;;;5035308;28;20017;-49
2023/04/26 00:36:18;;;;;;;1.85;1.40;;;14.30;1.00;;;;;;5034643;28;20036;-51
2023/04/26 00:38:44;;;;;;;2.15;1.48;;;14.30;1.00;;;;;;5034328;28;20056;-51
2023/04/26 00:41:10;;;;;;;3.00;1.13;;;14.40;1.00;;;;;;5033705;28;20024;-50
2023/04/26 00:43:39;;;;;;;2.22;0.98;;;14.40;1.00;;;;;;5034244;28;20104;-49
2023/04/26 00:46:07;;;;;;;3.40;1.40;;;14.30;1.00;;;;;;5034332;28;20018;-54
2023/04/26 00:48:33;;;;;;;4.32;1.58;;;14.40;1.00;;;;;;5042484;28;20382;-56
2023/04/26 00:51:00;;;;;;;4.00;1.50;;;14.30;1.00;;;;;;5040912;28;20037;-54
2023/04/26 00:53:26;;;;;;;2.78;1.40;;;14.40;1.00;;;;;;5034315;28;20028;-53
2023/04/26 00:55:53;;;;;;;1.48;1.15;;;14.30;1.00;;;;;;5035007;28;20124;-52
2023/04/26 00:58:18;;;;;;;1.35;1.25;;;14.30;1.00;;;;;;5034335;28;20037;-51
2023/04/26 01:00:44;;;;;;;1.83;1.40;;;14.30;1.00;;;;;;5034566;28;20029;-56
2023/04/26 01:03:10;;;;;;;1.75;1.52;;;14.30;1.00;;;;;;5034055;28;20168;-52
2023/04/26 01:05:37;;;;;;;1.83;1.55;;;14.20;1.00;;;;;;5034434;28;20049;-52
2023/04/26 01:08:04;;;;;;;1.50;1.40;;;14.20;1.00;;;;;;5034348;28;20546;-53
2023/04/26 01:10:31;;;;;;;1.65;1.27;;;14.20;1.00;;;;;;5034097;28;20040;-49
2023/04/26 01:12:58;;;;;;;1.98;1.30;;;14.20;1.00;;;;;;5033913;28;20037;-49
2023/04/26 01:15:26;;;;;;;2.13;1.27;;;14.20;1.00;;;;;;5033792;28;20040;-54
2023/04/26 01:17:52;;;;;;;3.15;2.00;;;14.20;1.00;;;;;;5034330;28;20379;-52
2023/04/26 01:20:18;;;;;;;3.35;2.65;;;14.20;1.00;;;;;;5032972;28;20033;-51
2023/04/26 01:22:44;;;;;;;3.28;2.17;;;14.20;1.00;;;;;;5041782;28;20040;-49
2023/04/26 01:25:15;;;;;;;3.25;2.40;;;14.10;1.00;;;;;;5039733;28;20034;-53
2023/04/26 01:27:40;;;;;;;4.25;2.50;;;14.10;1.00;;;;;;5032555;28;20022;-52
2023/04/26 01:30:12;;;;;;;3.80;3.33;;;14.10;1.00;;;;;;5034380;28;20033;-50
2023/04/26 01:32:38;;;;;;;4.07;3.42;;;14.10;1.00;;;;;;5031994;28;20151;-52
2023/04/26 01:35:04;;;;;;;4.85;3.92;;;14.10;1.00;;;;;;5032845;28;20147;-53
2023/04/26 01:37:30;;;;;;;4.40;4.00;;;14.10;1.00;;;;;;5033657;28;20045;-49
2023/04/26 01:39:56;;;;;;;5.45;4.13;;;14.00;1.00;;;;;;5033545;28;20518;-51
2023/04/26 01:42:21;;;;;;;6.10;4.18;;;14.00;1.00;;;;;;5033989;28;20071;-51
2023/04/26 01:44:47;;;;;;;6.72;4.88;;;14.00;1.00;;;;;;5033491;28;20022;-50
2023/04/26 01:47:13;;;;;;;5.32;4.82;;;14.00;1.00;;;;;;5033660;28;20034;-52
2023/04/26 01:49:38;;;;;;;5.00;4.50;;;14.00;1.00;;;;;;5033412;28;20029;-54
2023/04/26 01:52:04;;;;;;;5.50;5.00;;;14.00;1.00;;;;;;5033219;28;20045;-50
2023/04/26 01:54:30;;;;;;;6.05;5.00;;;14.00;1.00;;;;;;5033756;28;20021;-55
2023/04/26 01:56:55;;;;;;;6.72;5.40;;;13.90;1.00;;;;;;5033102;28;20029;-49
2023/04/26 01:59:21;;;;;;;6.03;5.10;;;13.90;1.00;;;;;;5031172;28;20033;-55
2023/04/26 02:01:46;;;;;;;6.10;5.00;;;13.90;1.00;;;;;;5033195;28;20180;-55
2023/04/26 02:04:12;;;;;;;6.22;5.63;;;13.90;1.00;;;;;;5033203;28;20100;-55
2023/04/26 02:06:38;;;;;;;6.78;5.55;;;13.80;1.00;;;;;;5033216;28;20039;-52
2023/04/26 02:09:04;;;;;;;5.38;4.85;;;13.80;1.00;;;;;;5032996;28;20030;-55
2023/04/26 02:11:30;;;;;;;5.65;5.15;;;13.80;1.00;;;;;;5032538;28;20033;-55
2023/04/26 02:13:56;;;;;;;6.90;5.93;;;13.80;1.00;;;;;;5034453;28;20021;-55
2023/04/26 02:16:23;;;;;;;6.93;5.35;;;13.80;1.00;;;;;;5032306;28;20498;-54
2023/04/26 02:18:49;;;;;;;6.90;6.20;;;13.80;1.00;;;;;;5032493;28;20479;-53
2023/04/26 02:21:17;;;;;;;7.07;5.38;;;13.80;1.00;;;;;;5032780;28;20108;-50
2023/04/26 02:23:43;;;;;;;5.90;5.30;;;13.80;1.00;;;;;;5033018;28;20565;-50
2023/04/26 02:26:10;;;;;;;6.55;5.53;;;13.80;1.00;;;;;;5032902;28;20116;-53
2023/04/26 02:28:36;;;;;;;6.50;5.72;;;13.70;1.00;;;;;;5032377;28;20022;-54
2023/04/26 02:31:02;;;;;;;6.35;5.75;;;13.80;1.00;;;;;;5033123;28;20037;-55
2023/04/26 02:33:28;;;;;;;6.13;5.60;;;13.70;1.00;;;;;;5033095;28;20029;-51
2023/04/26 02:35:53;;;;;;;7.45;6.40;;;13.60;1.00;;;;;;5032865;28;20114;-53
2023/04/26 02:38:19;;;;;;;6.57;5.93;;;13.60;1.00;;;;;;5031892;28;20110;-49
2023/04/26 02:40:45;;;;;;;8.23;6.10;;;13.60;1.00;;;;;;5032803;28;20025;-55
2023/04/26 02:43:10;;;;;;;8.07;5.70;;;13.60;1.00;;;;;;5032442;28;20127;-53
2023/04/26 02:45:42;;;;;;;6.30;5.70;;;13.60;1.00;;;;;;5032166;28;20049;-54
2023/04/26 02:48:08;;;;;;;5.88;5.30;;;13.60;1.00;;;;;;5033210;28;20037;-53
2023/04/26 02:50:34;;;;;;;8.10;7.30;;;13.70;1.00;;;;;;5031924;28;20022;-51
2023/04/26 02:53:00;;;;;;;8.10;6.07;;;13.60;1.00;;;;;;5032424;28;20029;-53
2023/04/26 02:55:25;;;;;;;6.88;6.25;;;13.60;1.00;;;;;;5032567;28;20501;-49
2023/04/26 02:57:51;;;;;;;7.82;6.82;;;13.60;1.00;;;;;;5030963;28;20017;-51
2023/04/26 03:00:17;;;;;;;7.25;6.55;;;13.60;1.00;;;;;;5032680;28;20036;-53
2023/04/26 03:02:43;;;;;;;7.43;6.03;;;13.50;1.00;;;;;;5032563;28;20018;-55
2023/04/26 03:05:09;;;;;;;7.60;6.40;;;13.50;1.00;;;;;;5031428;28;20475;-52
2023/04/26 03:07:35;;;;;;;7.10;6.45;;;13.50;1.00;;;;;;5031980;28;20030;-53
2023/04/26 03:10:00;;;;;;;7.32;6.63;;;13.50;1.00;;;;;;5031356;28;20028;-51
2023/04/26 03:12:27;;;;;;;6.57;5.97;;;13.60;1.00;;;;;;5031919;28;20096;-48
2023/04/26 03:14:53;;;;;;;7.82;6.80;;;13.50;1.00;;;;;;5032712;28;20028;-50
2023/04/26 03:17:18;;;;;;;7.53;6.75;;;13.50;1.00;;;;;;5032147;28;20029;-51
2023/04/26 03:19:44;;;;;;;8.43;6.70;;;13.40;1.00;;;;;;5032653;28;20057;-53
2023/04/26 03:22:14;;;;;;;7.57;6.78;;;13.40;1.00;;;;;;5032624;28;20030;-53
2023/04/26 03:24:43;;;;;;;7.47;6.72;;;13.40;1.00;;;;;;5031104;28;20017;-49
2023/04/26 03:27:09;;;;;;;8.43;7.32;;;13.40;1.00;;;;;;5029531;28;20036;-49
2023/04/26 03:29:34;;;;;;;7.32;6.63;;;13.30;1.00;;;;;;5031129;28;20022;-52
2023/04/26 03:32:00;;;;;;;7.72;6.43;;;13.30;1.00;;;;;;5032183;28;20160;-48
2023/04/26 03:34:26;;;;;;;7.50;6.45;;;13.40;1.00;;;;;;5032585;28;20030;-53
2023/04/26 03:36:52;;;;;;;9.02;7.03;;;13.30;1.00;;;;;;5031729;28;20031;-52
2023/04/26 03:39:17;;;;;;;8.63;6.78;;;13.30;1.00;;;;;;5031444;28;20021;-51
2023/04/26 03:41:43;;;;;;;9.35;6.53;;;13.20;1.00;;;;;;5030906;28;20025;-49
2023/04/26 03:44:09;;;;;;;7.30;6.60;;;13.30;1.00;;;;;;5022334;28;20036;-56
2023/04/26 03:46:40;;;;;;;8.32;6.97;;;13.20;1.00;;;;;;5032052;28;20034;-50
2023/04/26 03:49:06;;;;;;;7.53;6.22;;;13.30;1.00;;;;;;5032287;28;20546;-51
2023/04/26 03:51:32;;;;;;;7.50;6.80;;;13.30;1.00;;;;;;5034572;28;20120;-49
2023/04/26 03:53:58;;;;;;;7.70;6.80;;;13.30;1.00;;;;;;5035833;28;20033;-48
2023/04/26 03:56:24;;;;;;;7.55;6.78;;;13.20;1.00;;;;;;5035525;28;20029;-49
2023/04/26 03:58:49;;;;;;;9.90;7.25;;;13.20;1.00;;;;;;5035785;28;20075;-53
2023/04/26 04:01:15;;;;;;;8.05;6.10;;;13.20;1.00;;;;;;5035395;28;20057;-50
2023/04/26 04:03:41;;;;;;;9.20;7.13;;;13.10;1.00;;;;;;5035140;28;20408;-51
2023/04/26 04:06:06;;;;;;;7.28;6.20;;;13.10;1.00;;;;;;5034875;28;20022;-50
2023/04/26 04:08:35;;;;;;;7.53;6.35;;;13.10;1.00;;;;;;5035752;28;20029;-50
2023/04/26 04:11:01;;;;;;;7.68;6.53;;;13.10;1.00;;;;;;5027710;28;20042;-52
2023/04/26 04:13:26;;;;;;;8.60;6.70;;;13.10;1.00;;;;;;5035771;28;20030;-52
2023/04/26 04:15:52;;;;;;;8.90;6.63;;;13.20;1.00;;;;;;5033746;28;20112;-52
2023/04/26 04:18:18;;;;;;;7.85;6.28;;;13.10;1.00;;;;;;5035271;28;20387;-54
2023/04/26 04:20:45;;;;;;;6.35;5.75;;;13.10;1.00;;;;;;5035187;28;20039;-49
2023/04/26 04:23:11;;;;;;;8.57;6.45;;;13.10;1.00;;;;;;5035600;28;20036;-51
2023/04/26 04:25:37;;;;;;;7.18;5.75;;;13.10;1.00;;;;;;5036370;28;20080;-52
2023/04/26 04:28:03;;;;;;;7.57;6.57;;;13.10;1.00;;;;;;5035427;28;20029;-52
2023/04/26 04:30:29;;;;;;;7.43;6.03;;;13.00;1.00;;;;;;5035129;28;20538;-50
2023/04/26 04:32:59;;;;;;;8.00;6.40;;;13.10;1.00;;;;;;5034575;28;20167;-54
2023/04/26 04:35:27;;;;;;;7.00;6.00;;;13.00;1.00;;;;;;5034773;28;20032;-56
2023/04/26 04:37:55;;;;;;;7.28;5.20;;;13.00;1.00;;;;;;5034546;28;20140;-51
2023/04/26 04:40:22;;;;;;;7.43;5.10;;;13.00;1.00;;;;;;5035294;28;20053;-55
2023/04/26 04:42:48;;;;;;;6.88;5.70;;;13.00;1.00;;;;;;5034551;28;20456;-50
2023/04/26 04:45:13;;;;;;;9.55;6.22;;;13.10;1.00;;;;;;5034750;28;20022;-52
2023/04/26 04:47:39;;;;;;;9.32;6.15;;;13.10;1.00;;;;;;5034767;28;20045;-52
2023/04/26 04:50:06;;;;;;;10.00;6.03;;;13.10;1.00;;;;;;5034787;28;20538;-51
2023/04/26 04:52:32;;;;;;;8.77;5.68;;;13.10;1.00;;;;;;5034358;28;20503;-56
2023/04/26 04:54:58;;;;;;;7.55;5.82;;;13.20;1.00;;;;;;5034478;28;20045;-51
2023/04/26 04:57:24;;;;;;;6.13;5.47;;;13.10;1.00;;;;;;5034818;28;20032;-54
2023/04/26 04:59:50;;;;;;;7.32;5.85;;;13.10;1.00;;;;;;5033039;28;20029;-51
2023/04/26 05:02:15;;;;;;;8.63;6.50;;;13.10;1.00;;;;;;5034551;28;20056;-54
2023/04/26 05:04:42;;;;;;;7.38;6.53;;;13.20;1.00;;;;;;5033737;28;20017;-54
2023/04/26 05:07:08;;;;;;;7.82;5.97;;;13.10;1.00;;;;;;5034371;28;20095;-55
2023/04/26 05:09:34;;;;;;;8.30;6.07;;;13.10;1.00;;;;;;5026322;28;20029;-54
2023/04/26 05:12:00;;;;;;;9.77;6.93;;;13.10;1.00;;;;;;5033752;28;20048;-49
2023/04/26 05:14:26;;;;;;;7.45;5.68;;;13.10;1.00;;;;;;5033821;28;20124;-48
2023/04/26 05:16:51;;;;;;;8.77;5.63;;;13.10;1.00;;;;;;5033955;28;20029;-48
2023/04/26 05:19:18;;;;;;;9.68;6.53;;;13.10;1.00;;;;;;5034222;28;20022;-49
2023/04/26 05:21:44;;;;;;;6.78;5.97;;;13.10;1.00;;;;;;5024774;28;20038;-48
2023/04/26 05:24:09;;;;;;;7.10;5.45;;;13.10;1.00;;;;;;5031196;28;20022;-51
2023/04/26 05:26:35;;;;;;;7.15;5.85;;;13.20;1.00;;;;;;5044549;28;20025;-50
2023/04/26 05:29:01;;;;;;;9.35;5.68;;;13.20;1.00;;;;;;5033955;28;20105;-53
2023/04/26 05:31:26;;;;;;;6.50;5.75;;;13.20;1.00;;;;;;5033600;28;20124;-50
2023/04/26 05:33:52;;;;;;;7.20;6.18;;;13.20;1.00;;;;;;5034218;28;20033;-49
2023/04/26 05:36:18;;;;;;;6.85;5.78;;;13.20;1.00;;;;;;5031895;28;20056;-49
2023/04/26 05:38:44;;;;;;;6.65;5.97;;;13.30;1.00;;;;;;5033369;28;20049;-53
2023/04/26 05:41:09;;;;;;;7.78;5.95;;;13.40;1.00;;;;;;5033752;28;20036;-52
2023/04/26 05:43:36;;;;;;;7.30;5.90;;;13.30;1.00;;;;;;5033724;28;20021;-54
2023/04/26 05:46:01;;;;;;;7.03;6.22;;;13.40;1.00;;;;;;5033396;28;20092;-53
2023/04/26 05:48:28;;;;;;;10.25;6.80;;;13.40;1.00;;;;;;5033507;28;20158;-50
2023/04/26 05:50:54;;;;;;;6.78;5.55;;;13.40;1.00;;;;;;5032797;28;20044;-47
2023/04/26 05:53:20;;;;;;;8.60;6.78;;;13.40;1.00;;;;;;5033455;28;20034;-49
2023/04/26 05:55:46;;;;;;;8.77;7.78;;;13.40;1.00;;;;;;5032763;28;20109;-53
2023/04/26 05:58:11;;;;;;;9.68;7.78;;;13.50;1.00;;;;;;5033324;28;20041;-51
2023/04/26 06:00:37;;;;;;;10.93;9.75;;;13.50;1.00;;;;;;5032927;28;20026;-50
2023/04/26 06:03:04;;;;;;;9.85;8.50;;;13.50;1.00;;;;;;5033253;28;20029;-52
2023/04/26 06:05:33;;;;;;;10.82;7.97;;;13.50;1.00;;;;;;5033068;28;20045;-49
2023/04/26 06:07:58;;;;;;;9.60;7.45;;;13.50;1.00;;;;;;5033328;28;20103;-52
2023/04/26 06:10:24;;;;;;;8.35;7.47;;;13.60;1.00;;;;;;5033059;28;20490;-54
2023/04/26 06:12:50;;;;;;;9.55;7.57;;;13.60;1.00;;;;;;5032775;28;20025;-50
2023/04/26 06:15:16;;;;;;;9.27;7.57;;;13.60;1.00;;;;;;5032938;28;20032;-51
2023/04/26 06:17:45;;;;;;;9.77;7.00;;;13.60;1.00;;;;;;5033174;28;20014;-51
2023/04/26 06:20:10;;;;;;;7.85;7.05;;;13.60;1.00;;;;;;5032949;28;20091;-51
2023/04/26 06:22:37;;;;;;;8.85;7.68;;;13.50;1.00;;;;;;5032998;28;20026;-54
2023/04/26 06:25:04;;;;;;;6.82;5.97;;;13.50;1.00;;;;;;5038966;28;20047;-52
2023/04/26 06:27:29;;;;;;;7.63;6.68;;;13.50;1.00;;;;;;5040293;28;20102;-52
2023/04/26 06:29:55;;;;;;;8.88;6.85;;;13.60;1.00;;;;;;5032774;28;20064;-50
2023/04/26 06:32:24;;;;;;;8.40;7.57;;;13.60;1.00;;;;;;5032593;28;20124;-51
2023/04/26 06:34:50;;;;;;;7.55;6.72;;;13.60;1.00;;;;;;5032828;28;20025;-51
2023/04/26 06:37:15;;;;;;;8.30;7.30;;;13.60;1.00;;;;;;5030727;28;20049;-56
2023/04/26 06:39:41;;;;;;;9.02;7.60;;;13.70;1.00;;;;;;5032764;28;20029;-53
2023/04/26 06:42:07;;;;;;;8.40;7.60;;;13.70;1.00;;;;;;5032373;28;20026;-52
2023/04/26 06:44:33;;;;;;;8.88;7.82;;;13.70;1.00;;;;;;5032700;28;20029;-50
2023/04/26 06:47:01;;;;;;;10.43;7.80;;;13.70;1.00;;;;;;5032363;28;20025;-51
2023/04/26 06:49:27;;;;;;;8.80;7.45;;;13.70;1.00;;;;;;5024254;28;20057;-52
2023/04/26 06:51:52;;;;;;;9.60;8.43;;;13.70;1.00;;;;;;5026495;28;20479;-54
2023/04/26 06:54:18;;;;;;;9.85;7.95;;;13.70;1.00;;;;;;5032498;28;20029;-50
2023/04/26 06:56:44;;;;;;;8.57;6.82;;;13.80;1.00;;;;;;5031250;28;20025;-56
2023/04/26 06:59:10;;;;;;;7.70;6.95;;;13.80;1.00;;;;;;5032609;28;20093;-51
2023/04/26 07:01:36;;;;;;;11.25;7.40;;;13.80;1.00;;;;;;5032013;28;20033;-53
2023/04/26 07:04:03;;;;;;;8.27;6.90;;;13.80;1.00;;;;;;5032301;28;20379;-52
2023/04/26 07:06:30;;;;;;;8.57;6.43;;;13.80;1.00;;;;;;5032571;28;20040;-50
2023/04/26 07:08:57;;;;;;;8.80;6.15;;;13.90;1.00;;;;;;5017773;28;20120;-54
2023/04/26 07:11:23;;;;;;;7.55;6.22;;;13.90;1.00;;;;;;5032207;28;20041;-54
2023/04/26 07:13:49;;;;;;;8.90;6.50;;;13.90;1.00;;;;;;5032396;28;20018;-49
2023/04/26 07:16:18;;;;;;;8.45;7.05;;;13.90;1.00;;;;;;5030830;28;20048;-51
2023/04/26 07:18:44;;;;;;;10.82;7.18;;;13.90;1.00;;;;;;5032184;28;20026;-50
2023/04/26 07:21:09;;;;;;;8.60;6.90;;;14.00;1.00;;;;;;5032383;28;20037;-53
2023/04/26 07:23:35;;;;;;;11.27;6.47;;;14.00;1.00;;;;;;5030568;28;20116;-52
2023/04/26 07:26:03;;;;;;;11.25;6.95;;;14.00;1.00;;;;;;5034187;28;20079;-49
2023/04/26 07:28:29;;;;;;;9.35;6.93;;;14.10;1.00;;;;;;5036021;28;20041;-50
2023/04/26 07:30:55;;;;;;;7.15;6.40;;;14.10;1.00;;;;;;5036160;28;20037;-50
2023/04/26 07:33:20;;;;;;;8.18;6.60;;;14.10;1.00;;;;;;5028767;28;20029;-52
2023/04/26 07:35:55;;;;;;;10.30;7.40;;;14.20;1.00;;;;;;5036318;28;20036;-55
2023/04/26 07:38:21;;;;;;;11.25;6.45;;;14.20;1.00;;;;;;5035434;28;20052;-52
2023/04/26 07:40:47;;;;;;;9.13;5.55;;;14.30;1.00;;;;;;5035830;28;20112;-51
2023/04/26 07:43:14;;;;;;;6.20;5.60;;;14.20;1.00;;;;;;5035505;28;20104;-52
2023/04/26 07:45:40;;;;;;;8.52;6.13;;;14.20;1.00;;;;;;5050507;28;20025;-53
2023/04/26 07:48:06;;;;;;;6.50;5.80;;;14.30;1.00;;;;;;5048513;28;20025;-51
2023/04/26 07:50:32;;;;;;;6.10;5.43;;;14.40;1.00;;;;;;5050925;28;20040;-51
2023/04/26 07:52:57;;;;;;;7.43;6.38;;;14.40;1.00;;;;;;5047521;28;20413;-53
2023/04/26 07:55:23;;;;;;;8.32;7.20;;;14.40;1.00;;;;;;5047436;28;20017;-50
2023/04/26 07:57:49;;;;;;;13.30;7.40;;;14.50;1.00;;;;;;5054453;28;20471;-53
2023/04/26 08:00:16;;;;;;;7.47;6.78;;;14.50;1.00;;;;;;5050070;28;20410;-55
2023/04/26 08:02:41;;;;;;;8.75;7.28;;;14.50;1.00;;;;;;5049788;28;20025;-52
2023/04/26 08:05:07;;;;;;;8.82;7.15;;;14.50;1.00;;;;;;5045805;28;20091;-53
2023/04/26 08:07:33;;;;;;;10.90;7.60;;;14.60;1.00;;;;;;5046557;28;20348;-55
2023/04/26 08:09:59;;;;;;;9.60;6.90;;;14.60;1.00;;;;;;5050082;28;20028;-53
2023/04/26 08:12:27;;;;;;;9.35;7.45;;;14.60;1.00;;;;;;5049637;28;20509;-50
2023/04/26 08:14:53;;;;;;;7.70;6.93;;;14.70;1.00;;;;;;5047415;28;20481;-53
2023/04/26 08:17:18;;;;;;;7.57;6.20;;;14.80;1.00;;;;;;5045780;28;20021;-50
2023/04/26 08:19:44;;;;;;;9.50;7.22;;;14.80;1.00;;;;;;5046039;28;20032;-51
2023/04/26 08:22:10;;;;;;;10.32;9.18;;;14.80;1.00;;;;;;5045167;28;20025;-51
2023/04/26 08:24:35;;;;;;;8.40;7.25;;;14.90;1.00;;;;;;5043817;28;20401;-54
2023/04/26 08:27:27;;;;;;;8.80;6.30;;;15.00;1.00;;;;;;5043168;28;20020;-51
2023/04/26 08:29:53;;;;;;;8.95;7.00;;;15.00;1.00;;;;;;5044392;28;20365;-53
2023/04/26 08:32:18;;;;;;;7.13;6.43;;;15.00;1.00;;;;;;5053422;28;20066;-50
2023/04/26 08:34:44;;;;;;;6.60;6.00;;;15.10;1.00;;;;;;5048596;28;20107;-51
2023/04/26 08:37:10;;;;;;;6.28;5.30;;;15.20;1.00;;;;;;5050974;28;20046;-52
2023/04/26 08:39:36;;;;;;;6.50;5.90;;;15.30;1.00;;;;;;5041604;28;20387;-50
2023/04/26 08:42:13;;;;;;;7.25;5.45;;;15.30;1.00;;;;;;5051741;28;20025;-49
2023/04/26 08:44:41;;;;;;;6.22;4.90;;;15.40;1.00;;;;;;5044811;28;20027;-49
2023/04/26 08:47:38;;;;;;;5.70;5.20;;;15.40;1.00;;;;;;5037737;28;20040;-51
2023/04/26 08:50:05;;;;;;;3.70;3.40;;;15.50;1.00;;;;;;5044935;28;20025;-49
2023/04/26 08:52:31;;;;;;;6.47;4.13;;;15.60;1.00;;;;;;5046241;28;20367;-51
2023/04/26 08:54:58;;;;;;;4.95;3.65;;;15.60;1.00;;;;;;5048371;28;20053;-48
2023/04/26 08:57:25;;;;;;;3.70;3.38;;;15.60;1.00;;;;;;5046013;28;20121;-47
2023/04/26 08:59:52;;;;;;;12.32;11.32;;;15.70;1.00;;;;;;5051205;28;20056;-54
2023/04/26 09:02:20;;;;;;;5.43;4.93;;;15.70;1.00;;;;;;5043165;28;20029;-49
2023/04/26 09:04:47;;;;;;;4.72;3.85;;;15.70;1.00;;;;;;5041184;28;20393;-51
2023/04/26 09:07:55;;;;;;;5.72;3.88;;;15.80;1.00;;;;;;5046291;28;20037;-50
2023/04/26 09:10:21;;;;;;;4.70;4.30;;;15.90;1.00;;;;;;5022903;28;20052;-51
2023/04/26 09:12:53;;;;;;;5.00;3.67;;;15.90;1.00;;;;;;5012053;28;20064;-66
2023/04/26 09:15:23;;;;;;;3.78;3.33;;;15.90;1.00;;;;;;5036353;28;20045;-56
2023/04/26 09:17:50;;;;;;;4.55;3.78;;;15.90;1.00;;;;;;5044929;28;20478;-58
2023/04/26 09:20:24;;;;;;;6.60;3.20;;;15.90;1.00;;;;;;5047353;28;20032;-67
2023/04/26 09:22:52;;;;;;;4.15;3.60;;;16.00;1.00;;;;;;5037996;28;20033;-61
2023/04/26 09:25:26;;;;;;;4.00;3.60;;;16.10;1.00;;;;;;5049066;28;20082;-59
2023/04/26 09:27:51;;;;;;;4.30;3.00;;;16.20;1.00;;;;;;5044417;28;20030;-68
2023/04/26 09:30:19;;;;;;;4.82;3.17;;;16.20;1.00;;;;;;5047114;28;20044;-63
2023/04/26 09:32:52;;;;;;;2.88;2.67;;;16.30;1.00;;;;;;5049025;28;20036;-64
2023/04/26 09:35:41;;;;;;;2.97;2.08;;;16.30;1.00;;;;;;5039613;28;20529;-65
2023/04/26 09:38:12;;;;;;;1.70;1.60;;;16.40;1.00;;;;;;5045135;28;20052;-65
2023/04/26 09:40:41;;;;;;;2.10;1.63;;;16.40;1.00;;;;;;5039089;28;20044;-69
2023/04/26 09:43:09;;;;;;;3.67;3.38;;;16.50;1.00;;;;;;5043972;28;20094;-68
2023/04/26 09:45:57;;;;;;;3.13;2.30;;;16.60;1.00;;;;;;5049103;28;20049;-65
2023/04/26 09:48:24;;;;;;;2.17;1.85;;;16.60;1.00;;;;;;5039067;28;20495;-64
2023/04/26 09:50:58;;;;;;;3.10;1.92;;;16.60;1.00;;;;;;5045464;28;20405;-74
2023/04/26 09:53:40;;;;;;;2.42;2.22;;;16.70;1.00;;;;;;5051678;28;20033;-64
2023/04/26 09:56:14;;;;;;;4.20;1.60;;;16.70;1.00;;;;;;5040619;28;20051;-64
2023/04/26 09:58:46;;;;;;;3.55;2.55;;;16.80;1.00;;;;;;5041896;28;20355;-64
2023/04/26 10:01:14;;;;;;;2.25;1.80;;;16.90;1.00;;;;;;5041137;28;20365;-66
2023/04/26 10:03:40;;;;;;;6.97;1.67;;;17.00;1.00;;;;;;5043238;28;20021;-68
2023/04/26 10:06:06;;;;;;;1.20;1.13;;;16.90;1.00;;;;;;5050114;28;20107;-63
2023/04/26 10:08:32;;;;;;;1.85;1.45;;;17.00;1.00;;;;;;5042712;28;20109;-63
2023/04/26 10:11:00;;;;;;;2.15;1.60;;;17.10;1.00;;;;;;5044284;28;20036;-63
2023/04/26 10:13:26;;;;;;;3.20;1.23;;;17.10;1.00;;;;;;5047571;28;20024;-61
2023/04/26 10:15:53;;;;;;;2.10;1.20;;;17.10;1.00;;;;;;5043243;28;20055;-61
2023/04/26 10:18:19;;;;;;;3.10;1.15;;;17.10;1.00;;;;;;5044725;28;20108;-60
2023/04/26 10:20:50;;;;;;;4.47;1.85;;;17.20;1.00;;;;;;5048705;28;20032;-63
2023/04/26 10:23:24;;;;;;;2.58;1.77;;;17.30;1.00;;;;;;5043659;28;20036;-62
2023/04/26 10:25:50;;;;;;;1.23;1.00;;;17.30;1.00;;;;;;5035303;28;20010;-64
2023/04/26 10:28:17;;;;;;;3.55;1.20;;;17.40;1.00;;;;;;5038291;28;20264;-66
2023/04/26 10:30:57;;;;;;;1.33;1.23;;;17.60;1.00;;;;;;5032879;28;20028;-70
2023/04/26 10:33:24;;;;;;;1.80;1.08;;;17.70;1.00;;;;;;5045955;28;20180;-69
2023/04/26 10:36:17;;;;;;;1.50;1.27;;;17.80;1.00;;;;;;5043800;28;20023;-65
2023/04/26 10:39:17;;;;;;;1.15;0.95;;;17.90;1.00;;;;;;5034260;28;20029;-71
2023/04/26 10:41:42;;;;;;;3.35;1.30;;;18.00;1.00;;;;;;5044381;28;20447;-66
2023/04/26 10:44:39;;;;;;;0.93;0.90;;;18.00;1.00;;;;;;5046094;28;20030;-62
2023/04/26 10:47:21;;;;;;;1.40;0.80;;;18.20;1.00;;;;;;5041498;28;20056;-63
2023/04/26 10:49:47;;;;;;;0.95;0.80;;;18.30;1.00;;;;;;5046018;28;20024;-59
2023/04/26 10:52:19;;;;;;;2.50;1.70;;;18.40;1.00;;;;;;5041762;28;20028;-63
2023/04/26 10:54:49;;;;;;;4.72;3.20;;;18.50;1.00;;;;;;5048966;28;20025;-58
2023/04/26 10:57:15;;;;;;;1.80;1.35;;;18.60;1.00;;;;;;5035298;28;20421;-59
2023/04/26 11:00:15;;;;;;;2.25;0.90;;;18.70;1.00;;;;;;5049978;28;20053;-58
2023/04/26 11:02:55;;;;;;;1.00;0.70;;;18.70;1.00;;;;;;5031565;28;20356;-59
2023/04/26 11:05:36;;;;;;;5.38;2.47;;;18.90;1.00;;;;;;5046004;28;20030;-59
2023/04/26 11:08:14;;;;;;;3.38;1.70;;;18.90;1.00;;;;;;5036305;28;20025;-58
2023/04/26 11:10:41;;;;;;;2.35;1.20;;;19.00;1.00;;;;;;5023198;28;20044;-65
2023/04/26 11:13:06;;;;;;;1.33;1.20;;;19.00;1.00;;;;;;5035132;28;20037;-64
2023/04/26 11:15:33;;;;;;;1.90;1.00;;;19.10;1.00;;;;;;5036891;28;20030;-69
2023/04/26 11:18:03;;;;;;;2.35;1.17;;;19.10;1.00;;;;;;5036162;28;20021;-61
2023/04/26 11:20:32;;;;;;;2.10;1.00;;;19.30;1.00;;;;;;5026866;28;20052;-61
2023/04/26 11:22:59;;;;;;;2.97;1.80;;;19.70;1.00;;;;;;5032737;28;20377;-60
2023/04/26 11:25:29;;;;;;;2.15;1.00;;;19.70;1.00;;;;;;5035361;28;20029;-59
2023/04/26 11:28:01;;;;;;;2.03;1.40;;;19.80;1.00;;;;;;5035840;28;20104;-62
2023/04/26 11:30:29;;;;;;;1.45;1.35;;;19.90;1.00;;;;;;5035291;28;20024;-63
2023/04/26 11:32:54;;;;;;;1.80;1.27;;;20.00;1.00;;;;;;5033583;28;20271;-44
2023/04/26 11:35:22;;;;;;;2.22;1.58;;;20.30;1.00;;;;;;5033593;28;20130;-45
2023/04/26 11:37:50;;;;;;;3.85;2.72;;;20.50;1.00;;;;;;5034855;28;20511;-47
2023/04/26 11:40:16;;;;;;;3.10;2.10;;;20.70;1.00;;;;;;5034596;28;20040;-45
2023/04/26 11:42:43;;;;;;;4.20;2.00;;;20.80;1.00;;;;;;5036086;28;20025;-45
2023/04/26 11:45:10;;;;;;;3.58;1.85;;;20.90;1.00;;;;;;5050769;28;20116;-46
2023/04/26 11:47:36;;;;;;;3.33;1.77;;;21.20;1.00;;;;;;5052004;28;20391;-45
2023/04/26 11:50:02;;;;;;;1.65;1.30;;;21.40;1.00;;;;;;5037000;28;20109;-52
2023/04/26 11:52:29;;;;;;;2.50;1.38;;;21.90;99.90;;;;;;5023823;28;20132;-49
2023/04/26 11:55:05;;;;;;;1.35;1.00;;;23.10;99.90;;;;;;5035792;28;20533;-45
2023/04/26 11:57:32;;;;;;;1.42;1.10;;;26.10;99.90;;;;;;5034898;28;20482;-48
2023/04/26 12:00:14;;;;;;;1.70;1.60;;;28.90;99.90;;;;;;5034104;28;20383;-48
2023/04/26 12:02:50;;;;;;;1.73;1.60;;;30.50;99.90;;;;;;5035382;28;20079;-53
2023/04/26 12:05:29;;;;;;;3.17;1.63;;;32.00;99.90;;;;;;5035246;28;20368;-50
2023/04/26 12:07:58;;;;;;;1.80;1.70;;;33.90;99.90;;;;;;5035294;28;20432;-56
2023/04/26 12:10:36;;;;;;;1.90;1.80;;;34.20;99.90;;;;;;5035183;28;20083;-56
2023/04/26 12:13:02;;;;;;;3.30;3.00;;;35.30;99.90;;;;;;5034629;28;20047;-53
2023/04/26 12:15:32;;;;;;;1.80;1.70;;;35.90;99.90;;;;;;5035302;28;20025;-53
2023/04/26 12:18:07;;;;;;;2.20;1.73;;;36.80;99.90;;;;;;5044995;28;20091;-55
2023/04/26 12:20:35;;;;;;;2.95;1.80;;;38.20;99.90;;;;;;5038061;28;20022;-55
2023/04/26 12:23:06;;;;;;;1.90;1.80;;;38.70;99.90;;;;;;5065730;28;20084;-58
2023/04/26 12:25:37;;;;;;;2.40;2.30;;;39.10;99.90;;;;;;5043943;28;20029;-66
2023/04/26 12:28:04;;;;;;;3.17;2.78;;;39.30;99.90;;;;;;5044548;28;20060;-64
2023/04/26 12:30:30;;;;;;;4.05;3.03;;;37.80;99.90;;;;;;5050428;28;20025;-63
2023/04/26 12:32:59;;;;;;;2.22;1.92;;;36.20;99.90;;;;;;5046325;28;20040;-64
2023/04/26 12:35:25;;;;;;;2.13;1.92;;;35.50;99.90;;;;;;5041261;28;20035;-58
2023/04/26 12:37:55;;;;;;;2.47;1.98;;;35.60;99.90;;;;;;5041325;28;20045;-59
2023/04/26 12:40:22;;;;;;;2.13;1.92;;;37.10;99.90;;;;;;5036982;28;20025;-51
2023/04/26 12:42:49;;;;;;;2.35;2.17;;;39.20;99.90;;;;;;5043354;28;20026;-48
2023/04/26 12:45:17;;;;;;;2.85;2.60;;;41.30;99.90;;;;;;5033708;28;20033;-53
2023/04/26 12:47:43;;;;;;;3.42;2.50;;;42.50;99.90;;;;;;5041780;28;20029;-54
2023/04/26 12:50:11;;;;;;;2.30;2.10;;;42.80;99.90;;;;;;5036178;28;20029;-51
2023/04/26 12:52:43;;;;;;;2.80;2.60;;;42.00;99.90;;;;;;5042089;28;20029;-53
2023/04/26 12:55:10;;;;;;;2.03;1.92;;;40.90;99.90;;;;;;5038949;28;20049;-52
2023/04/26 12:57:37;;;;;;;2.80;2.60;;;41.70;99.90;;;;;;5049063;28;20235;-53
2023/04/26 13:00:05;;;;;;;2.65;2.55;;;42.10;99.90;;;;;;5038266;28;20013;-51